Allen Park, Michigan
Current Conditions -  °F | °C
As of 8:53 AM on Wednesday 26 Nov 2014 (Local Time) from KDTW Reporting Station
Light Snow Light Snow  
Wind Chill: -1°   Ceiling: 2300
Heat Index: -1°   Visibility: 7mi
Dew Point: -6°   Wind: 3mph
Humidity: 72%   Direction: 120°ESE
Pressure: 30.18"   Gusts: NA
Location:  42.26°N, 83.22°W
Report Text: KDTW 261353Z 12003KT 7SM -SN BKN023 OVC030 M01/M06 A3018 RMK AO2 SLP228 T10111056
Loading
Personal Weather Stations






























Interactive Weather Map New forecast layout! Learn more

10-Day Weather Forecast

Advertisements
Track Severe Weather on mobile